Time;durP1;ratioP1;P1;durP2;ratioP2;P2;SDS_P1;SDS_P2;PMS_P1;PMS_P2;Temp;Humidity;BMP_temperature;BMP_pressure;BME280_temperature;BME280_humidity;BME280_pressure;Samples;Min_cycle;Max_cycle;Signal;HPM_P1;HPM_P2
2022/11/22 00:00:42;;;;;;;86.40;44.60;;;;;;;0.73;92.32;97326.80;102764;1304;24020;-76
2022/11/22 00:03:17;;;;;;;82.30;43.70;;;;;;;0.70;92.53;97327.65;102940;1294;22529;-76
2022/11/22 00:05:44;;;;;;;79.80;43.40;;;;;;;0.68;92.73;97326.20;102864;1312;25260;-76
2022/11/22 00:08:11;;;;;;;81.90;42.90;;;;;;;0.65;92.83;97325.02;102893;1296;24407;-77
2022/11/22 00:10:38;;;;;;;79.20;41.30;;;;;;;0.63;93.01;97327.58;102880;1298;22676;-76
2022/11/22 00:13:04;;;;;;;74.60;39.60;;;;;;;0.60;93.29;97328.81;102820;1290;22607;-76
2022/11/22 00:15:31;;;;;;;77.80;40.70;;;;;;;0.61;93.51;97333.60;102794;1298;23925;-76
2022/11/22 00:17:59;;;;;;;79.60;41.80;;;;;;;0.61;93.96;97332.86;102894;1312;25257;-76
2022/11/22 00:20:26;;;;;;;71.90;39.60;;;;;;;0.60;93.68;97334.79;102855;1297;22515;-75
2022/11/22 00:22:56;;;;;;;77.30;43.50;;;;;;;0.59;94.05;97328.62;102911;1291;25252;-76
2022/11/22 00:25:23;;;;;;;74.00;41.80;;;;;;;0.60;94.26;97326.77;102900;1288;25223;-75
2022/11/22 00:27:49;;;;;;;83.80;44.60;;;;;;;0.61;94.67;97327.84;103015;1289;24320;-76
2022/11/22 00:30:16;;;;;;;78.30;43.10;;;;;;;0.63;94.67;97331.16;102950;1313;22488;-75
2022/11/22 00:32:43;;;;;;;73.90;39.90;;;;;;;0.61;94.23;97336.73;103536;1289;25617;-75
2022/11/22 00:35:10;;;;;;;71.50;40.30;;;;;;;0.58;93.85;97340.04;102930;1289;22479;-75
2022/11/22 00:37:37;;;;;;;68.50;37.60;;;;;;;0.56;93.89;97343.66;102820;1291;138687;-75
2022/11/22 00:40:05;;;;;;;69.60;38.70;;;;;;;0.56;94.13;97345.21;103002;1298;25947;-75
2022/11/22 00:42:32;;;;;;;68.50;38.00;;;;;;;0.55;94.13;97340.56;103009;1298;25352;-75
2022/11/22 00:44:59;;;;;;;68.30;36.90;;;;;;;0.53;94.03;97340.12;102993;1289;140002;-75
2022/11/22 00:47:26;;;;;;;66.90;37.30;;;;;;;0.52;94.22;97343.84;102943;1305;22489;-75
2022/11/22 00:49:53;;;;;;;63.10;36.50;;;;;;;0.52;94.40;97343.42;102926;1313;138339;-75
2022/11/22 00:52:19;;;;;;;65.40;36.20;;;;;;;0.51;94.22;97345.40;103174;1283;22495;-75
2022/11/22 00:54:46;;;;;;;63.40;37.30;;;;;;;0.51;94.06;97352.90;102962;1311;25250;-75
2022/11/22 00:57:13;;;;;;;69.10;35.40;;;;;;;0.47;94.00;97350.71;103064;1288;138363;-75
2022/11/22 00:59:40;;;;;;;63.70;35.40;;;;;;;0.44;93.76;97352.98;103173;1289;22491;-75
2022/11/22 01:02:07;;;;;;;66.50;37.80;;;;;;;0.40;93.67;97348.18;103035;1290;138290;-75
2022/11/22 01:04:34;;;;;;;67.30;36.50;;;;;;;0.36;93.69;97349.25;103103;1304;22880;-75
2022/11/22 01:07:02;;;;;;;69.70;37.50;;;;;;;0.33;93.86;97350.29;103085;1289;25248;-75
2022/11/22 01:09:29;;;;;;;68.80;37.90;;;;;;;0.31;93.76;97357.24;102947;1296;138641;-75
2022/11/22 01:11:56;;;;;;;69.30;37.60;;;;;;;0.30;94.09;97359.30;102900;1312;23190;-75
2022/11/22 01:14:22;;;;;;;73.20;39.20;;;;;;;0.30;94.50;97361.27;102976;1304;22628;-74
2022/11/22 01:16:49;;;;;;;68.60;38.70;;;;;;;0.30;94.51;97366.97;103119;1290;26499;-74
2022/11/22 01:19:16;;;;;;;71.90;39.60;;;;;;;0.22;93.56;97367.84;103042;1288;25347;-74
2022/11/22 01:21:43;;;;;;;72.20;38.80;;;;;;;0.09;92.53;97371.23;102827;1304;25423;-74
2022/11/22 01:24:10;;;;;;;73.80;37.70;;;;;;;-0.04;92.21;97377.04;102890;1290;138036;-74
2022/11/22 01:26:37;;;;;;;65.50;37.90;;;;;;;-0.11;93.23;97381.52;103028;1289;22463;-73
2022/11/22 01:29:04;;;;;;;61.90;36.20;;;;;;;-0.11;93.92;97376.41;103013;1288;24219;-73
2022/11/22 01:31:31;;;;;;;62.80;34.30;;;;;;;-0.12;94.38;97373.60;103058;1310;25282;-73
2022/11/22 01:33:58;;;;;;;69.50;38.10;;;;;;;-0.10;94.43;97374.27;103000;1295;22480;-73
2022/11/22 01:36:26;;;;;;;73.50;37.30;;;;;;;-0.11;94.19;97368.38;102950;1298;22500;-73
2022/11/22 01:38:53;;;;;;;67.30;38.60;;;;;;;-0.13;94.35;97369.65;102952;1291;24347;-73
2022/11/22 01:41:22;;;;;;;71.20;37.10;;;;;;;-0.13;94.49;97376.00;102856;1299;139977;-73
2022/11/22 01:43:49;;;;;;;69.30;39.10;;;;;;;-0.14;94.60;97376.41;103163;1310;22478;-72
2022/11/22 01:46:34;;;;;;;70.50;39.70;;;;;;;-0.14;94.76;97372.63;103168;1311;22479;-72
2022/11/22 01:49:31;;;;;;;71.70;38.80;;;;;;;-0.14;95.22;97369.77;102988;1305;22614;-72
2022/11/22 01:52:05;;;;;;;70.10;38.70;;;;;;;-0.12;95.10;97367.48;103073;1311;24234;-72
2022/11/22 01:54:37;;;;;;;70.70;36.70;;;;;;;-0.10;95.36;97365.05;102798;1296;139152;-72
2022/11/22 01:57:09;;;;;;;72.70;38.20;;;;;;;-0.10;95.48;97362.29;102799;1312;24341;-72
2022/11/22 01:59:41;;;;;;;70.50;36.30;;;;;;;-0.10;95.17;97357.72;103029;1290;138264;-72
2022/11/22 02:02:11;;;;;;;67.40;36.80;;;;;;;-0.12;95.25;97352.04;103044;1290;22473;-72
2022/11/22 02:04:40;;;;;;;68.70;36.40;;;;;;;-0.12;95.28;97350.52;103261;1294;138461;-72
2022/11/22 02:07:13;;;;;;;59.10;33.60;;;;;;;-0.14;95.09;97349.27;103107;1295;23261;-72
2022/11/22 02:09:42;;;;;;;67.80;36.60;;;;;;;-0.14;95.26;97348.38;103048;1296;22500;-72
2022/11/22 02:12:11;;;;;;;64.60;35.90;;;;;;;-0.13;95.32;97351.88;103309;1289;138247;-72
2022/11/22 02:14:39;;;;;;;66.40;35.10;;;;;;;-0.12;95.40;97351.18;102994;1289;22478;-72
2022/11/22 02:17:06;;;;;;;67.90;35.90;;;;;;;-0.12;95.20;97352.58;102768;1312;138773;-72
2022/11/22 02:19:48;;;;;;;65.30;36.30;;;;;;;-0.11;95.70;97346.65;102962;1287;22615;-72
2022/11/22 02:22:34;;;;;;;70.70;36.30;;;;;;;-0.10;95.63;97341.63;102882;1291;22581;-72
2022/11/22 02:25:11;;;;;;;68.70;38.00;;;;;;;-0.10;95.78;97340.22;102845;1300;138272;-72
2022/11/22 02:27:38;;;;;;;69.30;36.40;;;;;;;-0.10;95.77;97335.90;103146;1301;22783;-73
2022/11/22 02:30:07;;;;;;;65.10;35.90;;;;;;;-0.11;95.88;97331.83;103063;1285;138487;-72
2022/11/22 02:32:34;;;;;;;65.90;36.50;;;;;;;-0.13;95.66;97324.50;103177;1282;25338;-72
2022/11/22 02:35:02;;;;;;;62.70;34.60;;;;;;;-0.15;95.58;97322.80;102890;1310;138431;-72
2022/11/22 02:37:32;;;;;;;64.60;36.70;;;;;;;-0.15;95.63;97320.95;103000;1312;22492;-72
2022/11/22 02:40:07;;;;;;;64.90;33.70;;;;;;;-0.17;95.80;97316.14;103045;1284;25347;-72
2022/11/22 02:42:35;;;;;;;60.10;33.10;;;;;;;-0.17;95.59;97322.43;102874;1306;138294;-72
2022/11/22 02:45:02;;;;;;;61.00;33.40;;;;;;;-0.17;95.46;97328.33;103279;1298;23336;-72
2022/11/22 02:47:29;;;;;;;57.40;32.00;;;;;;;-0.17;95.75;97325.27;102906;1304;138341;-72
2022/11/22 02:49:56;;;;;;;63.20;34.20;;;;;;;-0.17;95.30;97325.60;103089;1313;25648;-73
2022/11/22 02:52:23;;;;;;;61.50;33.80;;;;;;;-0.16;95.46;97325.19;103026;1289;22466;-73
2022/11/22 02:54:50;;;;;;;61.10;33.70;;;;;;;-0.20;94.74;97323.34;102918;1301;138487;-73
2022/11/22 02:57:17;;;;;;;59.20;33.30;;;;;;;-0.28;94.03;97320.05;103032;1312;22478;-73
2022/11/22 02:59:43;;;;;;;61.50;33.50;;;;;;;-0.32;94.26;97317.66;102837;1281;138450;-73
2022/11/22 03:02:10;;;;;;;59.80;33.10;;;;;;;-0.35;94.36;97321.55;102989;1289;22526;-73
2022/11/22 03:04:37;;;;;;;61.90;33.40;;;;;;;-0.37;94.79;97321.55;103037;1289;22474;-73
2022/11/22 03:07:04;;;;;;;57.00;32.10;;;;;;;-0.40;94.77;97316.12;103013;1289;22510;-73
2022/11/22 03:09:32;;;;;;;57.50;31.90;;;;;;;-0.41;94.96;97312.04;102951;1289;22523;-73
2022/11/22 03:11:59;;;;;;;53.10;32.10;;;;;;;-0.42;95.01;97310.19;102885;1296;138401;-73
2022/11/22 03:14:26;;;;;;;58.10;32.50;;;;;;;-0.43;95.17;97309.43;103224;1286;24063;-73
2022/11/22 03:16:53;;;;;;;54.50;32.40;;;;;;;-0.45;94.90;97309.52;102820;1310;139000;-73
2022/11/22 03:19:20;;;;;;;57.90;31.60;;;;;;;-0.48;94.89;97306.31;102963;1297;25347;-73
2022/11/22 03:21:47;;;;;;;56.20;31.10;;;;;;;-0.49;95.02;97306.84;103018;1312;22496;-73
2022/11/22 03:24:14;;;;;;;55.10;31.80;;;;;;;-0.53;94.50;97308.39;102915;1288;138296;-73
2022/11/22 03:26:46;;;;;;;58.50;32.80;;;;;;;-0.58;94.33;97314.92;103068;1286;22527;-73
2022/11/22 03:29:12;;;;;;;63.10;35.20;;;;;;;-0.64;94.00;97320.21;102983;1301;139398;-73
2022/11/22 03:31:39;;;;;;;63.70;34.20;;;;;;;-0.70;93.90;97325.83;103017;1310;22471;-73
2022/11/22 03:34:06;;;;;;;68.60;36.50;;;;;;;-0.73;94.06;97334.14;102948;1294;22744;-73
2022/11/22 03:36:33;;;;;;;67.70;36.70;;;;;;;-0.75;94.20;97330.92;102942;1310;138328;-74
2022/11/22 03:39:00;;;;;;;73.90;38.60;;;;;;;-0.74;94.35;97332.43;103024;1281;23874;-74
2022/11/22 03:41:27;;;;;;;79.10;38.90;;;;;;;-0.71;95.10;97330.22;102943;1288;138454;-73
2022/11/22 03:43:54;;;;;;;75.30;39.90;;;;;;;-0.70;94.81;97324.14;102864;1300;25347;-74
2022/11/22 03:46:21;;;;;;;68.30;35.80;;;;;;;-0.73;94.57;97320.27;103055;1310;22477;-74
2022/11/22 03:48:48;;;;;;;55.00;30.50;;;;;;;-0.74;94.70;97314.42;102888;1310;138395;-73
2022/11/22 03:51:14;;;;;;;55.30;30.80;;;;;;;-0.73;95.51;97308.46;102975;1286;24394;-74
2022/11/22 03:53:42;;;;;;;53.30;27.90;;;;;;;-0.71;96.25;97308.23;102860;1279;138261;-74
2022/11/22 03:56:09;;;;;;;52.70;29.10;;;;;;;-0.67;96.87;97304.54;102944;1289;22487;-74
2022/11/22 03:58:36;;;;;;;56.60;29.50;;;;;;;-0.62;97.21;97308.16;103042;1303;22502;-74
2022/11/22 04:01:02;;;;;;;51.30;29.20;;;;;;;-0.58;97.38;97309.09;102867;1304;138481;-74
2022/11/22 04:03:30;;;;;;;47.90;28.00;;;;;;;-0.54;97.56;97310.16;102939;1312;22605;-74
2022/11/22 04:05:57;;;;;;;42.00;25.20;;;;;;;-0.50;97.69;97311.81;102954;1297;138341;-74
2022/11/22 04:08:24;;;;;;;46.50;27.10;;;;;;;-0.48;97.72;97311.48;103136;1310;25524;-74
2022/11/22 04:10:51;;;;;;;49.30;26.50;;;;;;;-0.46;97.53;97313.91;102888;1295;138431;-74
2022/11/22 04:13:18;;;;;;;49.40;25.80;;;;;;;-0.45;97.55;97316.97;103084;1288;22529;-74
2022/11/22 04:15:45;;;;;;;47.00;26.20;;;;;;;-0.44;97.51;97314.75;103068;1296;23878;-74
2022/11/22 04:18:13;;;;;;;46.60;24.70;;;;;;;-0.45;97.33;97317.13;102924;1288;138351;-74
2022/11/22 04:23:26;;;;;;;43.60;25.40;;;;;;;-0.47;97.26;97313.47;102834;1288;138882;-74
2022/11/22 04:25:54;;;;;;;47.10;25.10;;;;;;;-0.47;97.04;97313.17;102909;1298;22878;-74
2022/11/22 04:28:24;;;;;;;47.00;25.40;;;;;;;-0.48;97.32;97305.05;102934;1307;24263;-74
2022/11/22 04:33:36;;;;;;;41.00;24.00;;;;;;;-0.52;96.89;97309.67;102878;1296;23223;-74
2022/11/22 04:36:03;;;;;;;38.80;22.30;;;;;;;-0.54;97.04;97305.52;102818;1289;138366;-74
2022/11/22 04:38:30;;;;;;;38.90;23.10;;;;;;;-0.55;96.78;97297.45;102932;1286;25262;-74
2022/11/22 04:40:57;;;;;;;41.20;22.00;;;;;;;-0.58;97.09;97296.17;102751;1304;140337;-74
2022/11/22 04:46:14;;;;;;;;;;;;;;;-0.59;97.21;97305.83;103019;1312;22452;-74
2022/11/22 04:48:41;;;;;;;38.90;20.30;;;;;;;-0.60;97.18;97303.45;102854;1288;124630;-74
2022/11/22 04:53:58;;;;;;;38.00;20.70;;;;;;;-0.63;96.73;97300.02;102966;1309;138568;-74
2022/11/22 04:56:26;;;;;;;35.20;20.40;;;;;;;-0.66;96.55;97300.14;102932;1302;22494;-74
2022/11/22 04:58:53;;;;;;;37.60;20.40;;;;;;;-0.69;96.14;97301.31;102794;1302;138422;-74
2022/11/22 05:01:20;;;;;;;35.20;19.80;;;;;;;-0.73;96.19;97301.07;102919;1300;22474;-75
2022/11/22 05:03:47;;;;;;;35.40;19.80;;;;;;;-0.76;96.23;97300.94;102917;1288;25567;-75
2022/11/22 05:06:14;;;;;;;37.90;21.30;;;;;;;-0.80;96.13;97298.09;102636;1296;138323;-74
2022/11/22 05:08:41;;;;;;;35.40;19.40;;;;;;;-0.83;96.38;97303.38;102871;1298;22564;-75
2022/11/22 05:11:08;;;;;;;37.80;21.70;;;;;;;-0.84;96.48;97303.09;102798;1288;138549;-75
2022/11/22 05:13:38;;;;;;;41.20;22.40;;;;;;;-0.85;96.29;97304.20;102874;1291;25353;-75
2022/11/22 05:16:09;;;;;;;39.20;21.60;;;;;;;-0.88;96.43;97303.70;102916;1290;22963;-75
2022/11/22 05:18:36;;;;;;;39.20;21.60;;;;;;;-0.88;96.71;97307.65;102845;1283;138278;-75
2022/11/22 05:21:12;;;;;;;38.50;20.70;;;;;;;-0.90;96.77;97311.26;102973;1289;25347;-75
2022/11/22 05:23:54;;;;;;;39.40;22.00;;;;;;;-0.91;96.67;97315.60;102851;1313;138467;-74
2022/11/22 05:26:24;;;;;;;43.80;21.60;;;;;;;-0.95;96.48;97313.95;102864;1281;22873;-75
2022/11/22 05:28:51;;;;;;;;;;;;;;;-0.97;96.50;97312.21;103018;1307;138799;-75
2022/11/22 05:31:23;;;;;;;39.30;20.80;;;;;;;-0.98;96.69;97313.23;102827;1312;22507;-75
2022/11/22 05:33:52;;;;;;;43.50;21.30;;;;;;;-1.00;96.64;97304.58;102833;1291;25232;-75
2022/11/22 05:36:20;;;;;;;31.40;18.20;;;;;;;-1.00;97.08;97303.83;102807;1290;138614;-75
2022/11/22 05:38:47;;;;;;;40.50;19.10;;;;;;;-1.00;96.91;97301.85;102834;1305;22485;-75
2022/11/22 05:41:15;;;;;;;34.60;19.40;;;;;;;-0.98;97.27;97302.58;102768;1305;138589;-75
2022/11/22 05:43:42;;;;;;;32.90;17.90;;;;;;;-0.97;97.17;97301.70;102883;1289;22480;-75
2022/11/22 05:46:12;;;;;;;33.90;18.70;;;;;;;-0.92;97.27;97306.11;102146;1297;1115729;-75
2022/11/22 05:48:42;;;;;;;31.80;17.30;;;;;;;-0.89;97.37;97304.26;102860;1295;139541;-75
2022/11/22 05:51:14;;;;;;;35.20;18.10;;;;;;;-0.88;97.09;97306.16;103017;1291;24506;-76
2022/11/22 05:53:42;;;;;;;31.60;17.20;;;;;;;-0.86;97.26;97306.33;102962;1284;138323;-75
2022/11/22 05:56:13;;;;;;;36.20;18.90;;;;;;;-0.87;96.94;97310.98;102845;1297;22598;-75
2022/11/22 05:58:40;;;;;;;37.60;19.50;;;;;;;-0.89;96.56;97319.03;102927;1296;24249;-75
2022/11/22 06:01:09;;;;;;;35.40;19.50;;;;;;;-0.92;96.43;97313.47;102807;1312;22494;-76
2022/11/22 06:03:37;;;;;;;39.50;20.00;;;;;;;-0.93;96.34;97308.33;102800;1286;25256;-75
2022/11/22 06:06:05;;;;;;;37.70;21.30;;;;;;;-0.95;96.76;97310.13;102785;1312;22492;-76
2022/11/22 06:08:35;;;;;;;34.70;20.00;;;;;;;-0.97;96.34;97305.92;103090;1289;24862;-76
2022/11/22 06:11:13;;;;;;;40.90;20.70;;;;;;;-0.98;96.65;97309.87;103263;1304;22550;-75
2022/11/22 06:13:42;;;;;;;41.90;20.80;;;;;;;-1.00;96.56;97311.92;103040;1280;22479;-76
2022/11/22 06:16:10;;;;;;;46.80;22.60;;;;;;;-1.02;96.61;97311.12;102950;1313;24568;-75
2022/11/22 06:18:37;;;;;;;45.10;23.60;;;;;;;-1.04;96.45;97315.73;102947;1313;24329;-75
2022/11/22 06:21:09;;;;;;;43.00;22.00;;;;;;;-1.05;96.66;97321.43;103004;1295;22549;-75
2022/11/22 06:23:36;;;;;;;42.80;22.20;;;;;;;-1.06;96.52;97321.59;102839;1288;23485;-75
2022/11/22 06:26:06;;;;;;;42.30;23.50;;;;;;;-1.06;96.67;97322.12;102883;1288;22490;-75
2022/11/22 06:28:35;;;;;;;39.30;21.30;;;;;;;-1.06;96.61;97320.31;102863;1289;25263;-76
2022/11/22 06:31:10;;;;;;;40.40;21.10;;;;;;;-1.05;96.95;97324.76;103005;1288;22910;-76
2022/11/22 06:33:38;;;;;;;44.70;22.00;;;;;;;-1.05;96.80;97325.20;103053;1288;22460;-75
2022/11/22 06:36:08;;;;;;;35.40;21.70;;;;;;;-1.04;97.04;97328.80;102954;1307;22489;-76
2022/11/22 06:38:35;;;;;;;36.80;20.70;;;;;;;-1.04;97.03;97331.27;103086;1303;22640;-75
2022/11/22 06:41:08;;;;;;;40.50;22.30;;;;;;;-1.03;97.01;97335.40;103040;1288;22604;-75
2022/11/22 06:43:37;;;;;;;45.60;23.40;;;;;;;-1.00;97.21;97337.20;102994;1288;25385;-75
2022/11/22 06:46:06;;;;;;;42.50;23.10;;;;;;;-0.98;97.36;97337.13;103323;1283;25354;-75
2022/11/22 06:48:35;;;;;;;42.70;22.80;;;;;;;-0.95;97.09;97338.00;103336;1297;24299;-75
2022/11/22 06:51:27;;;;;;;40.70;22.40;;;;;;;-0.95;96.78;97339.77;103547;1282;25273;-75
2022/11/22 06:53:55;;;;;;;38.40;22.30;;;;;;;-0.93;96.80;97340.76;103150;1295;23073;-75
2022/11/22 06:56:24;;;;;;;40.80;23.10;;;;;;;-0.89;96.97;97342.41;103728;1282;22472;-75
2022/11/22 06:58:52;;;;;;;35.70;21.10;;;;;;;-0.86;96.96;97339.47;103923;1287;22474;-75
2022/11/22 07:01:22;;;;;;;37.60;22.00;;;;;;;-0.84;96.59;97334.55;103987;1288;22483;-76
2022/11/22 07:03:50;;;;;;;37.10;21.90;;;;;;;-0.82;96.66;97337.80;103564;1287;26072;-76
2022/11/22 07:06:18;;;;;;;38.00;21.20;;;;;;;-0.79;96.81;97338.35;103275;1302;23294;-76
2022/11/22 07:08:45;;;;;;;38.60;21.80;;;;;;;-0.75;96.96;97335.56;103253;1307;22493;-75
2022/11/22 07:11:24;;;;;;;38.30;22.60;;;;;;;-0.71;96.78;97333.31;103366;1291;22683;-75
2022/11/22 07:13:51;;;;;;;42.40;22.90;;;;;;;-0.67;96.73;97335.17;103661;1304;22982;-76
2022/11/22 07:16:20;;;;;;;42.40;23.90;;;;;;;-0.63;97.19;97337.45;103970;1297;22607;-75
2022/11/22 07:18:48;;;;;;;39.10;21.40;;;;;;;-0.58;97.19;97339.94;103397;1298;26054;-75
2022/11/22 07:21:21;;;;;;;38.90;21.10;;;;;;;-0.54;96.98;97346.41;103297;1291;22592;-76
2022/11/22 07:23:49;;;;;;;40.20;23.10;;;;;;;-0.50;96.83;97351.91;103479;1304;25157;-76
2022/11/22 07:26:19;;;;;;;39.70;22.30;;;;;;;-0.46;96.74;97353.21;103183;1289;22488;-75
2022/11/22 07:28:46;;;;;;;39.30;22.70;;;;;;;-0.42;97.10;97359.02;104214;1289;22492;-76
2022/11/22 07:31:15;;;;;;;42.50;22.80;;;;;;;-0.38;97.13;97363.48;103302;1281;22489;-76
2022/11/22 07:33:43;;;;;;;44.30;23.20;;;;;;;-0.32;97.25;97365.96;103980;1296;23958;-76
2022/11/22 07:36:12;;;;;;;43.70;23.60;;;;;;;-0.27;97.44;97363.41;103955;1288;25317;-75
2022/11/22 07:38:39;;;;;;;;;;;;;;;-0.19;97.44;97370.60;104312;1303;23257;-76
2022/11/22 07:41:07;;;;;;;42.00;23.30;;;;;;;-0.16;96.87;97367.15;103187;1289;22485;-76
2022/11/22 07:43:34;;;;;;;49.40;25.70;;;;;;;-0.14;96.74;97366.77;103980;1289;23142;-76
2022/11/22 07:46:04;;;;;;;47.70;25.50;;;;;;;-0.12;96.67;97365.09;104372;1288;24234;-76
2022/11/22 07:48:30;;;;;;;43.60;24.80;;;;;;;-0.09;96.72;97361.96;103265;1306;23387;-76
2022/11/22 07:51:03;;;;;;;47.80;26.10;;;;;;;-0.05;96.90;97352.13;103250;1297;22635;-76
2022/11/22 07:53:29;;;;;;;45.50;26.60;;;;;;;0.01;97.11;97344.61;103430;1281;22488;-76
2022/11/22 07:56:01;;;;;;;42.40;24.40;;;;;;;0.07;97.00;97342.09;103215;1295;25057;-76
2022/11/22 07:58:28;;;;;;;40.80;22.70;;;;;;;0.10;96.78;97341.75;103197;1306;22470;-75
2022/11/22 08:00:55;;;;;;;45.30;25.10;;;;;;;0.13;96.51;97343.19;103361;1287;22718;-76
2022/11/22 08:03:22;;;;;;;42.90;24.20;;;;;;;0.16;96.52;97349.25;103760;1312;25332;-75
2022/11/22 08:05:49;;;;;;;49.50;27.00;;;;;;;0.19;96.67;97352.19;103328;1296;24278;-76
2022/11/22 08:08:16;;;;;;;44.50;26.50;;;;;;;0.26;96.91;97359.02;104370;1307;22548;-76
2022/11/22 08:10:43;;;;;;;52.30;27.90;;;;;;;0.32;97.01;97347.52;103210;1302;25462;-75
2022/11/22 08:13:10;;;;;;;44.90;26.00;;;;;;;0.41;96.93;97350.20;103129;1291;27726;-76
2022/11/22 08:15:37;;;;;;;45.20;27.10;;;;;;;0.46;96.56;97354.47;103649;1300;25553;-76
2022/11/22 08:18:04;;;;;;;44.60;25.40;;;;;;;0.50;96.41;97363.41;103144;1297;22473;-76
2022/11/22 08:20:31;;;;;;;45.10;25.00;;;;;;;0.53;96.21;97365.05;103319;1295;22538;-76
2022/11/22 08:22:58;;;;;;;42.60;24.20;;;;;;;0.58;96.30;97360.93;103273;1301;26719;-76
2022/11/22 08:25:25;;;;;;;42.90;25.40;;;;;;;0.64;96.18;97359.77;103292;1289;22491;-76
2022/11/22 08:27:52;;;;;;;47.20;25.50;;;;;;;0.68;96.23;97362.27;103154;1289;22478;-75
2022/11/22 08:30:19;;;;;;;43.20;25.00;;;;;;;0.71;96.02;97360.29;103039;1305;23981;-75
2022/11/22 08:32:46;;;;;;;44.20;24.80;;;;;;;0.75;95.82;97360.89;102997;1291;22584;-75
2022/11/22 08:35:14;;;;;;;50.80;26.80;;;;;;;0.79;95.70;97366.30;103415;1285;22463;-75
2022/11/22 08:37:41;;;;;;;46.80;27.30;;;;;;;0.82;95.52;97369.61;103248;1281;22695;-75
2022/11/22 08:40:08;;;;;;;50.80;27.70;;;;;;;0.85;95.32;97376.36;103139;1288;22676;-75
2022/11/22 08:42:35;;;;;;;44.50;24.90;;;;;;;0.89;95.27;97390.84;103073;1291;22488;-75
2022/11/22 08:45:02;;;;;;;45.40;25.80;;;;;;;0.92;95.24;97395.74;103260;1304;25187;-75
2022/11/22 08:47:29;;;;;;;45.10;26.00;;;;;;;0.97;95.18;97394.79;103032;1296;24441;-76
2022/11/22 08:49:56;;;;;;;48.00;26.50;;;;;;;0.99;95.04;97388.30;103062;1291;22513;-75
2022/11/22 08:52:23;;;;;;;49.60;28.00;;;;;;;1.01;94.64;97382.73;103143;1291;22528;-75
2022/11/22 08:54:50;;;;;;;45.50;26.00;;;;;;;1.00;94.12;97383.64;103249;1301;25341;-75
2022/11/22 08:57:17;;;;;;;46.60;26.50;;;;;;;0.97;93.61;97383.11;103220;1298;22785;-75
2022/11/22 08:59:44;;;;;;;51.50;28.00;;;;;;;0.96;93.63;97386.50;103079;1281;24443;-75
2022/11/22 09:02:11;;;;;;;53.40;28.80;;;;;;;0.96;93.94;97389.71;103149;1289;22475;-75
2022/11/22 09:04:38;;;;;;;48.20;27.50;;;;;;;0.98;94.10;97391.94;103158;1291;25452;-75
2022/11/22 09:07:05;;;;;;;52.10;27.60;;;;;;;0.99;93.99;97388.13;103223;1290;22536;-75
2022/11/22 09:09:31;;;;;;;46.90;25.80;;;;;;;1.01;94.07;97381.45;103055;1284;23660;-75
2022/11/22 09:11:58;;;;;;;43.60;24.10;;;;;;;1.04;93.99;97377.98;103081;1289;25394;-75
2022/11/22 09:14:25;;;;;;;47.80;26.60;;;;;;;1.05;93.44;97374.11;103324;1295;22561;-75
2022/11/22 09:16:52;;;;;;;46.40;25.90;;;;;;;1.07;93.64;97374.42;103134;1305;25528;-75
2022/11/22 09:19:19;;;;;;;47.80;24.90;;;;;;;1.09;93.78;97365.73;103225;1298;22477;-75
2022/11/22 09:21:46;;;;;;;52.10;26.90;;;;;;;1.08;93.31;97362.95;103366;1297;22479;-75
2022/11/22 09:24:13;;;;;;;48.10;25.90;;;;;;;1.06;93.07;97372.03;103494;1312;24230;-75
2022/11/22 09:26:40;;;;;;;51.00;26.40;;;;;;;1.06;93.22;97370.35;103052;1283;22504;-74
2022/11/22 09:29:07;;;;;;;51.00;26.70;;;;;;;1.07;93.23;97372.12;103741;1284;22529;-75
2022/11/22 09:31:34;;;;;;;49.40;25.80;;;;;;;1.05;92.87;97373.95;103840;1296;22223;-74
2022/11/22 09:34:01;;;;;;;57.00;29.10;;;;;;;1.05;92.94;97376.45;103592;1305;22484;-75
2022/11/22 09:36:28;;;;;;;43.90;25.00;;;;;;;1.04;93.01;97367.26;103384;1289;138765;-74
2022/11/22 09:38:55;;;;;;;54.30;29.20;;;;;;;1.06;93.33;97376.91;103433;1289;24326;-74
2022/11/22 09:41:43;;;;;;;57.10;30.10;;;;;;;1.08;93.33;97380.77;103417;1287;22535;-74
2022/11/22 09:44:10;;;;;;;49.70;26.80;;;;;;;1.11;93.54;97384.35;103346;1290;22757;-74
2022/11/22 09:47:02;;;;;;;54.60;29.70;;;;;;;1.18;93.68;97379.50;103195;1305;26056;-73
2022/11/22 09:50:06;;;;;;;53.00;28.30;;;;;;;1.28;93.99;97375.62;103169;1290;139248;-73
2022/11/22 09:52:50;;;;;;;54.90;28.40;;;;;;;1.41;93.79;97372.61;103626;1288;22602;-72
2022/11/22 09:55:33;;;;;;;54.90;28.60;;;;;;;1.53;94.27;97370.02;105188;1289;139103;-73
2022/11/22 09:58:09;;;;;;;55.50;27.40;;;;;;;1.62;93.80;97364.62;103445;1286;22646;-73
2022/11/22 10:00:40;;;;;;;53.20;27.20;;;;;;;1.72;93.97;97357.30;103123;1298;138795;-73
2022/11/22 10:03:38;;;;;;;52.20;28.10;;;;;;;1.83;93.37;97359.05;103835;1287;22483;-73
2022/11/22 10:06:11;;;;;;;50.60;25.70;;;;;;;1.92;93.01;97351.48;103186;1304;22483;-72
2022/11/22 10:08:46;;;;;;;44.10;24.80;;;;;;;1.94;92.89;97360.55;103485;1297;23911;-72
2022/11/22 10:11:33;;;;;;;45.50;24.00;;;;;;;1.95;92.80;97360.75;103040;1312;22480;-72
2022/11/22 10:14:46;;;;;;;48.10;25.50;;;;;;;1.99;93.06;97359.80;102884;1310;138600;-72
2022/11/22 10:17:22;;;;;;;49.10;26.00;;;;;;;2.03;93.09;97357.13;102881;1304;22965;-73
2022/11/22 10:20:11;;;;;;;49.00;25.30;;;;;;;2.08;93.17;97350.77;102715;1299;138300;-72
2022/11/22 10:22:38;;;;;;;48.10;26.70;;;;;;;2.13;92.96;97348.98;102769;1305;24300;-73
2022/11/22 10:25:13;;;;;;;46.00;25.20;;;;;;;2.16;92.88;97339.93;102600;1301;138140;-73
2022/11/22 10:27:41;;;;;;;42.90;24.20;;;;;;;2.17;92.45;97334.71;102437;1286;22498;-72
2022/11/22 10:30:20;;;;;;;46.00;22.50;;;;;;;2.16;92.18;97336.09;102312;1315;138612;-73
2022/11/22 10:33:14;;;;;;;45.20;23.10;;;;;;;2.12;91.91;97344.23;102311;1302;164335;-73
2022/11/22 10:36:16;;;;;;;50.90;26.30;;;;;;;2.13;92.52;97350.70;102494;1315;23351;-73
2022/11/22 10:39:16;;;;;;;48.50;26.20;;;;;;;2.18;92.65;97357.95;102405;1315;22605;-73
2022/11/22 10:41:56;;;;;;;49.00;25.30;;;;;;;2.23;92.57;97354.96;102383;1300;25248;-73
2022/11/22 10:44:37;;;;;;;41.20;23.90;;;;;;;2.26;92.16;97360.60;102487;1305;138623;-73
2022/11/22 10:47:44;;;;;;;45.30;23.50;;;;;;;2.31;92.26;97357.63;102415;1316;25319;-73
2022/11/22 10:50:43;;;;;;;47.20;24.30;;;;;;;2.36;92.11;97350.27;102859;1313;138129;-73
2022/11/22 10:53:30;;;;;;;50.60;26.90;;;;;;;2.40;92.04;97346.52;102699;1289;22491;-73
2022/11/22 10:56:09;;;;;;;45.10;23.60;;;;;;;2.44;91.88;97333.87;102809;1296;138094;-75
2022/11/22 10:59:15;;;;;;;44.00;24.10;;;;;;;2.45;91.31;97322.33;102966;1312;24261;-74
2022/11/22 11:01:42;;;;;;;45.40;24.60;;;;;;;2.42;91.41;97316.86;102828;1288;138229;-75
2022/11/22 11:04:11;;;;;;;40.60;23.00;;;;;;;2.42;91.55;97309.55;102964;1304;22487;-73
2022/11/22 11:06:57;;;;;;;;;;;;;;;2.43;91.65;97305.52;102952;1291;138305;-74
2022/11/22 11:09:30;;;;;;;39.30;22.20;;;;;;;2.44;91.56;97301.84;103083;1289;25453;-73
2022/11/22 11:12:00;;;;;;;45.10;23.70;;;;;;;2.45;91.53;97305.25;102968;1304;22474;-73
2022/11/22 11:14:33;;;;;;;40.90;23.50;;;;;;;2.46;91.73;97302.02;103033;1288;139812;-73
2022/11/22 11:17:01;;;;;;;40.30;23.70;;;;;;;2.52;91.82;97310.94;102920;1299;22479;-73
2022/11/22 11:19:32;;;;;;;45.70;24.00;;;;;;;2.58;92.06;97310.05;102523;1291;138448;-73
2022/11/22 11:22:14;;;;;;;39.00;22.40;;;;;;;2.65;91.91;97305.14;102969;1312;22488;-73
2022/11/22 11:24:41;;;;;;;45.50;24.90;;;;;;;2.72;91.64;97296.52;102469;1291;138339;-73
2022/11/22 11:27:10;;;;;;;38.40;23.10;;;;;;;2.78;91.58;97292.67;103048;1296;24337;-73
2022/11/22 11:29:49;;;;;;;41.50;24.10;;;;;;;2.83;91.42;97296.02;103306;1290;22495;-72
2022/11/22 11:32:19;;;;;;;41.20;23.10;;;;;;;2.90;91.45;97303.73;102844;1313;138539;-73
2022/11/22 11:34:56;;;;;;;38.90;22.10;;;;;;;2.96;91.33;97307.82;103104;1289;22478;-73
2022/11/22 11:37:31;;;;;;;41.30;21.50;;;;;;;3.02;91.52;97308.82;103040;1297;138269;-73